sensor_id;sensor_type;location;lat;lon;timestamp;P1;durP1;ratioP1;P2;durP2;ratioP2
10811;SDS011;5458;51.496;7.334;2023-03-01T00:01:03;13.30;;;10.13;;
10811;SDS011;5458;51.496;7.334;2023-03-01T00:03:30;13.25;;;10.32;;
10811;SDS011;5458;51.496;7.334;2023-03-01T00:05:56;11.30;;;10.10;;
10811;SDS011;5458;51.496;7.334;2023-03-01T00:08:22;10.32;;;9.30;;
10811;SDS011;5458;51.496;7.334;2023-03-01T00:10:48;11.37;;;10.17;;
10811;SDS011;5458;51.496;7.334;2023-03-01T00:13:13;11.25;;;10.10;;
10811;SDS011;5458;51.496;7.334;2023-03-01T00:15:39;11.05;;;9.95;;
10811;SDS011;5458;51.496;7.334;2023-03-01T00:18:06;10.85;;;9.75;;
10811;SDS011;5458;51.496;7.334;2023-03-01T00:20:33;11.57;;;9.90;;
10811;SDS011;5458;51.496;7.334;2023-03-01T00:22:59;10.93;;;9.82;;
10811;SDS011;5458;51.496;7.334;2023-03-01T00:25:25;11.15;;;10.07;;
10811;SDS011;5458;51.496;7.334;2023-03-01T00:27:50;11.18;;;9.20;;
10811;SDS011;5458;51.496;7.334;2023-03-01T00:30:16;10.90;;;9.80;;
10811;SDS011;5458;51.496;7.334;2023-03-01T00:32:41;10.30;;;9.30;;
10811;SDS011;5458;51.496;7.334;2023-03-01T00:35:07;10.68;;;9.57;;
10811;SDS011;5458;51.496;7.334;2023-03-01T00:37:33;11.23;;;9.65;;
10811;SDS011;5458;51.496;7.334;2023-03-01T00:39:58;11.13;;;8.93;;
10811;SDS011;5458;51.496;7.334;2023-03-01T00:42:24;9.93;;;8.93;;
10811;SDS011;5458;51.496;7.334;2023-03-01T00:44:49;10.82;;;9.68;;
10811;SDS011;5458;51.496;7.334;2023-03-01T00:47:15;10.23;;;9.23;;
10811;SDS011;5458;51.496;7.334;2023-03-01T00:49:40;12.00;;;10.38;;
10811;SDS011;5458;51.496;7.334;2023-03-01T00:52:06;12.43;;;10.00;;
10811;SDS011;5458;51.496;7.334;2023-03-01T00:54:32;11.02;;;10.02;;
10811;SDS011;5458;51.496;7.334;2023-03-01T00:56:57;10.63;;;9.52;;
10811;SDS011;5458;51.496;7.334;2023-03-01T00:59:23;12.20;;;9.57;;
10811;SDS011;5458;51.496;7.334;2023-03-01T01:01:48;11.03;;;9.53;;
10811;SDS011;5458;51.496;7.334;2023-03-01T01:04:14;11.30;;;9.47;;
10811;SDS011;5458;51.496;7.334;2023-03-01T01:06:41;10.73;;;9.73;;
10811;SDS011;5458;51.496;7.334;2023-03-01T01:09:09;10.30;;;9.23;;
10811;SDS011;5458;51.496;7.334;2023-03-01T01:11:42;11.02;;;9.38;;
10811;SDS011;5458;51.496;7.334;2023-03-01T01:14:09;14.57;;;9.40;;
10811;SDS011;5458;51.496;7.334;2023-03-01T01:16:35;11.27;;;10.17;;
10811;SDS011;5458;51.496;7.334;2023-03-01T01:19:00;10.45;;;9.32;;
10811;SDS011;5458;51.496;7.334;2023-03-01T01:21:27;13.27;;;10.37;;
10811;SDS011;5458;51.496;7.334;2023-03-01T01:23:53;15.10;;;10.17;;
10811;SDS011;5458;51.496;7.334;2023-03-01T01:28:45;10.73;;;9.63;;
10811;SDS011;5458;51.496;7.334;2023-03-01T01:31:10;11.65;;;9.90;;
10811;SDS011;5458;51.496;7.334;2023-03-01T01:33:36;11.00;;;9.87;;
10811;SDS011;5458;51.496;7.334;2023-03-01T01:36:03;10.60;;;9.60;;
10811;SDS011;5458;51.496;7.334;2023-03-01T01:38:29;13.60;;;10.27;;
10811;SDS011;5458;51.496;7.334;2023-03-01T01:40:55;11.90;;;10.60;;
10811;SDS011;5458;51.496;7.334;2023-03-01T01:43:28;11.00;;;9.90;;
10811;SDS011;5458;51.496;7.334;2023-03-01T01:46:43;11.20;;;9.77;;
10811;SDS011;5458;51.496;7.334;2023-03-01T01:48:54;10.67;;;9.67;;
10811;SDS011;5458;51.496;7.334;2023-03-01T01:51:36;11.50;;;9.30;;
10811;SDS011;5458;51.496;7.334;2023-03-01T01:54:24;11.90;;;10.18;;
10811;SDS011;5458;51.496;7.334;2023-03-01T01:56:56;10.83;;;9.80;;
10811;SDS011;5458;51.496;7.334;2023-03-01T01:59:26;10.60;;;9.50;;
10811;SDS011;5458;51.496;7.334;2023-03-01T02:01:53;12.18;;;9.73;;
10811;SDS011;5458;51.496;7.334;2023-03-01T02:04:19;10.77;;;9.73;;
10811;SDS011;5458;51.496;7.334;2023-03-01T02:07:09;10.77;;;9.65;;
10811;SDS011;5458;51.496;7.334;2023-03-01T02:09:36;11.68;;;9.90;;
10811;SDS011;5458;51.496;7.334;2023-03-01T02:12:01;10.55;;;9.38;;
10811;SDS011;5458;51.496;7.334;2023-03-01T02:14:29;12.38;;;10.07;;
10811;SDS011;5458;51.496;7.334;2023-03-01T02:16:54;10.98;;;9.88;;
10811;SDS011;5458;51.496;7.334;2023-03-01T02:19:31;10.70;;;9.70;;
10811;SDS011;5458;51.496;7.334;2023-03-01T02:22:24;10.57;;;9.30;;
10811;SDS011;5458;51.496;7.334;2023-03-01T02:24:56;10.63;;;9.53;;
10811;SDS011;5458;51.496;7.334;2023-03-01T02:27:31;10.37;;;9.40;;
10811;SDS011;5458;51.496;7.334;2023-03-01T02:30:03;12.00;;;9.93;;
10811;SDS011;5458;51.496;7.334;2023-03-01T02:32:29;13.10;;;10.37;;
10811;SDS011;5458;51.496;7.334;2023-03-01T02:34:55;11.30;;;9.77;;
10811;SDS011;5458;51.496;7.334;2023-03-01T02:37:21;13.33;;;10.37;;
10811;SDS011;5458;51.496;7.334;2023-03-01T02:39:51;14.67;;;10.47;;
10811;SDS011;5458;51.496;7.334;2023-03-01T02:42:23;12.57;;;9.90;;
10811;SDS011;5458;51.496;7.334;2023-03-01T02:44:55;10.70;;;9.73;;
10811;SDS011;5458;51.496;7.334;2023-03-01T02:47:21;15.80;;;10.43;;
10811;SDS011;5458;51.496;7.334;2023-03-01T02:49:46;15.17;;;11.97;;
10811;SDS011;5458;51.496;7.334;2023-03-01T02:52:34;13.30;;;11.90;;
10811;SDS011;5458;51.496;7.334;2023-03-01T02:55:15;13.67;;;11.20;;
10811;SDS011;5458;51.496;7.334;2023-03-01T02:57:45;11.80;;;10.60;;
10811;SDS011;5458;51.496;7.334;2023-03-01T03:00:17;15.20;;;10.87;;
10811;SDS011;5458;51.496;7.334;2023-03-01T03:02:46;11.57;;;10.30;;
10811;SDS011;5458;51.496;7.334;2023-03-01T03:05:15;11.97;;;10.50;;
10811;SDS011;5458;51.496;7.334;2023-03-01T03:07:43;14.20;;;10.63;;
10811;SDS011;5458;51.496;7.334;2023-03-01T03:10:11;12.40;;;10.23;;
10811;SDS011;5458;51.496;7.334;2023-03-01T03:12:44;13.13;;;11.43;;
10811;SDS011;5458;51.496;7.334;2023-03-01T03:15:14;13.57;;;10.97;;
10811;SDS011;5458;51.496;7.334;2023-03-01T03:17:40;11.30;;;10.10;;
10811;SDS011;5458;51.496;7.334;2023-03-01T03:20:07;14.40;;;10.43;;
10811;SDS011;5458;51.496;7.334;2023-03-01T03:22:39;10.37;;;9.37;;
10811;SDS011;5458;51.496;7.334;2023-03-01T03:25:08;11.50;;;10.30;;
10811;SDS011;5458;51.496;7.334;2023-03-01T03:27:35;15.83;;;11.13;;
10811;SDS011;5458;51.496;7.334;2023-03-01T03:30:05;14.50;;;10.17;;
10811;SDS011;5458;51.496;7.334;2023-03-01T03:32:37;13.85;;;11.30;;
10811;SDS011;5458;51.496;7.334;2023-03-01T03:35:08;13.17;;;11.43;;
10811;SDS011;5458;51.496;7.334;2023-03-01T03:37:38;13.70;;;10.80;;
10811;SDS011;5458;51.496;7.334;2023-03-01T03:40:23;11.17;;;9.97;;
10811;SDS011;5458;51.496;7.334;2023-03-01T03:42:49;14.93;;;11.52;;
10811;SDS011;5458;51.496;7.334;2023-03-01T03:45:15;12.93;;;10.97;;
10811;SDS011;5458;51.496;7.334;2023-03-01T03:47:42;14.37;;;10.93;;
10811;SDS011;5458;51.496;7.334;2023-03-01T03:50:09;12.27;;;10.63;;
10811;SDS011;5458;51.496;7.334;2023-03-01T03:52:35;12.63;;;9.93;;
10811;SDS011;5458;51.496;7.334;2023-03-01T03:55:01;12.63;;;10.55;;
10811;SDS011;5458;51.496;7.334;2023-03-01T03:57:26;14.00;;;10.93;;
10811;SDS011;5458;51.496;7.334;2023-03-01T03:59:52;18.60;;;11.17;;
10811;SDS011;5458;51.496;7.334;2023-03-01T04:02:17;12.33;;;9.93;;
10811;SDS011;5458;51.496;7.334;2023-03-01T04:04:47;12.13;;;10.47;;
10811;SDS011;5458;51.496;7.334;2023-03-01T04:07:14;12.07;;;10.87;;
10811;SDS011;5458;51.496;7.334;2023-03-01T04:09:41;16.90;;;10.90;;
10811;SDS011;5458;51.496;7.334;2023-03-01T04:12:07;12.27;;;9.60;;
10811;SDS011;5458;51.496;7.334;2023-03-01T04:14:33;11.87;;;10.30;;
10811;SDS011;5458;51.496;7.334;2023-03-01T04:16:59;13.43;;;10.53;;
10811;SDS011;5458;51.496;7.334;2023-03-01T04:19:25;12.77;;;10.50;;
10811;SDS011;5458;51.496;7.334;2023-03-01T04:21:51;16.37;;;10.67;;
10811;SDS011;5458;51.496;7.334;2023-03-01T04:24:17;13.97;;;10.10;;
10811;SDS011;5458;51.496;7.334;2023-03-01T04:26:43;12.23;;;9.93;;
10811;SDS011;5458;51.496;7.334;2023-03-01T04:29:09;10.97;;;9.87;;
10811;SDS011;5458;51.496;7.334;2023-03-01T04:31:35;13.00;;;10.40;;
10811;SDS011;5458;51.496;7.334;2023-03-01T04:34:00;12.57;;;10.13;;
10811;SDS011;5458;51.496;7.334;2023-03-01T04:36:27;11.73;;;10.27;;
10811;SDS011;5458;51.496;7.334;2023-03-01T04:38:54;11.48;;;10.27;;
10811;SDS011;5458;51.496;7.334;2023-03-01T04:41:21;12.50;;;11.05;;
10811;SDS011;5458;51.496;7.334;2023-03-01T04:43:48;12.40;;;10.35;;
10811;SDS011;5458;51.496;7.334;2023-03-01T04:46:14;11.40;;;10.20;;
10811;SDS011;5458;51.496;7.334;2023-03-01T04:48:43;18.23;;;11.00;;
10811;SDS011;5458;51.496;7.334;2023-03-01T04:51:09;11.83;;;10.67;;
10811;SDS011;5458;51.496;7.334;2023-03-01T04:53:38;12.63;;;10.90;;
10811;SDS011;5458;51.496;7.334;2023-03-01T04:56:04;11.63;;;10.50;;
10811;SDS011;5458;51.496;7.334;2023-03-01T04:58:30;11.73;;;10.53;;
10811;SDS011;5458;51.496;7.334;2023-03-01T05:00:56;12.27;;;10.37;;
10811;SDS011;5458;51.496;7.334;2023-03-01T05:03:21;12.67;;;10.67;;
10811;SDS011;5458;51.496;7.334;2023-03-01T05:05:48;13.10;;;11.67;;
10811;SDS011;5458;51.496;7.334;2023-03-01T05:08:15;13.33;;;10.60;;
10811;SDS011;5458;51.496;7.334;2023-03-01T05:10:46;13.23;;;11.90;;
10811;SDS011;5458;51.496;7.334;2023-03-01T05:13:16;13.23;;;11.23;;
10811;SDS011;5458;51.496;7.334;2023-03-01T05:15:53;12.23;;;11.00;;
10811;SDS011;5458;51.496;7.334;2023-03-01T05:18:20;12.97;;;11.13;;
10811;SDS011;5458;51.496;7.334;2023-03-01T05:20:50;11.83;;;10.63;;
10811;SDS011;5458;51.496;7.334;2023-03-01T05:23:17;14.97;;;11.17;;
10811;SDS011;5458;51.496;7.334;2023-03-01T05:25:43;13.73;;;11.20;;
10811;SDS011;5458;51.496;7.334;2023-03-01T05:28:12;13.27;;;11.47;;
10811;SDS011;5458;51.496;7.334;2023-03-01T05:30:38;13.43;;;11.40;;
10811;SDS011;5458;51.496;7.334;2023-03-01T05:33:04;13.10;;;11.27;;
10811;SDS011;5458;51.496;7.334;2023-03-01T05:35:35;16.77;;;12.20;;
10811;SDS011;5458;51.496;7.334;2023-03-01T05:38:01;12.40;;;11.10;;
10811;SDS011;5458;51.496;7.334;2023-03-01T05:40:27;12.87;;;11.33;;
10811;SDS011;5458;51.496;7.334;2023-03-01T05:42:54;11.37;;;10.27;;
10811;SDS011;5458;51.496;7.334;2023-03-01T05:45:21;14.53;;;11.10;;
10811;SDS011;5458;51.496;7.334;2023-03-01T05:47:48;11.30;;;10.10;;
10811;SDS011;5458;51.496;7.334;2023-03-01T05:52:43;12.00;;;10.80;;
10811;SDS011;5458;51.496;7.334;2023-03-01T05:55:10;17.43;;;11.80;;
10811;SDS011;5458;51.496;7.334;2023-03-01T05:57:36;15.47;;;10.97;;
10811;SDS011;5458;51.496;7.334;2023-03-01T06:00:01;14.43;;;11.50;;
10811;SDS011;5458;51.496;7.334;2023-03-01T06:02:28;13.87;;;11.70;;
10811;SDS011;5458;51.496;7.334;2023-03-01T06:04:54;16.03;;;12.10;;
10811;SDS011;5458;51.496;7.334;2023-03-01T06:07:20;14.53;;;10.73;;
10811;SDS011;5458;51.496;7.334;2023-03-01T06:09:46;13.37;;;11.53;;
10811;SDS011;5458;51.496;7.334;2023-03-01T06:12:11;16.33;;;11.43;;
10811;SDS011;5458;51.496;7.334;2023-03-01T06:14:37;16.50;;;11.57;;
10811;SDS011;5458;51.496;7.334;2023-03-01T06:17:02;11.67;;;10.47;;
10811;SDS011;5458;51.496;7.334;2023-03-01T06:19:28;14.63;;;12.43;;
10811;SDS011;5458;51.496;7.334;2023-03-01T06:21:54;15.73;;;12.17;;
10811;SDS011;5458;51.496;7.334;2023-03-01T06:24:19;15.53;;;12.10;;
10811;SDS011;5458;51.496;7.334;2023-03-01T06:26:45;13.40;;;11.60;;
10811;SDS011;5458;51.496;7.334;2023-03-01T06:29:10;14.47;;;11.33;;
10811;SDS011;5458;51.496;7.334;2023-03-01T06:31:36;15.73;;;12.10;;
10811;SDS011;5458;51.496;7.334;2023-03-01T06:34:02;15.90;;;11.70;;
10811;SDS011;5458;51.496;7.334;2023-03-01T06:36:27;17.57;;;13.13;;
10811;SDS011;5458;51.496;7.334;2023-03-01T06:38:53;15.50;;;12.27;;
10811;SDS011;5458;51.496;7.334;2023-03-01T06:41:18;18.00;;;13.73;;
10811;SDS011;5458;51.496;7.334;2023-03-01T06:43:44;19.27;;;12.90;;
10811;SDS011;5458;51.496;7.334;2023-03-01T06:46:09;16.57;;;13.10;;
10811;SDS011;5458;51.496;7.334;2023-03-01T06:48:35;16.60;;;13.37;;
10811;SDS011;5458;51.496;7.334;2023-03-01T06:51:00;16.23;;;13.00;;
10811;SDS011;5458;51.496;7.334;2023-03-01T06:53:27;14.80;;;12.40;;
10811;SDS011;5458;51.496;7.334;2023-03-01T06:55:54;13.30;;;11.83;;
10811;SDS011;5458;51.496;7.334;2023-03-01T06:58:24;17.50;;;12.10;;
10811;SDS011;5458;51.496;7.334;2023-03-01T07:00:49;17.60;;;12.00;;
10811;SDS011;5458;51.496;7.334;2023-03-01T07:03:15;13.00;;;11.70;;
10811;SDS011;5458;51.496;7.334;2023-03-01T07:05:40;17.60;;;12.90;;
10811;SDS011;5458;51.496;7.334;2023-03-01T07:08:06;16.43;;;12.27;;
10811;SDS011;5458;51.496;7.334;2023-03-01T07:10:31;15.40;;;12.57;;
10811;SDS011;5458;51.496;7.334;2023-03-01T07:12:57;20.73;;;14.03;;
10811;SDS011;5458;51.496;7.334;2023-03-01T07:15:23;18.30;;;13.63;;
10811;SDS011;5458;51.496;7.334;2023-03-01T07:17:50;22.20;;;13.27;;
10811;SDS011;5458;51.496;7.334;2023-03-01T07:20:19;23.33;;;15.10;;
10811;SDS011;5458;51.496;7.334;2023-03-01T07:22:50;20.17;;;14.07;;
10811;SDS011;5458;51.496;7.334;2023-03-01T07:25:19;21.20;;;14.77;;
10811;SDS011;5458;51.496;7.334;2023-03-01T07:27:49;22.83;;;14.65;;
10811;SDS011;5458;51.496;7.334;2023-03-01T07:30:15;15.20;;;13.60;;
10811;SDS011;5458;51.496;7.334;2023-03-01T07:32:41;17.10;;;13.80;;
10811;SDS011;5458;51.496;7.334;2023-03-01T07:35:07;15.50;;;12.97;;
10811;SDS011;5458;51.496;7.334;2023-03-01T07:37:33;16.37;;;13.37;;
10811;SDS011;5458;51.496;7.334;2023-03-01T07:39:58;15.57;;;13.25;;
10811;SDS011;5458;51.496;7.334;2023-03-01T07:42:24;14.35;;;12.38;;
10811;SDS011;5458;51.496;7.334;2023-03-01T07:44:49;13.55;;;12.15;;
10811;SDS011;5458;51.496;7.334;2023-03-01T07:47:15;13.77;;;12.25;;
10811;SDS011;5458;51.496;7.334;2023-03-01T07:49:40;13.18;;;11.77;;
10811;SDS011;5458;51.496;7.334;2023-03-01T07:52:06;15.57;;;11.35;;
10811;SDS011;5458;51.496;7.334;2023-03-01T07:54:32;12.82;;;11.35;;
10811;SDS011;5458;51.496;7.334;2023-03-01T07:56:57;14.80;;;11.00;;
10811;SDS011;5458;51.496;7.334;2023-03-01T07:59:23;14.38;;;10.68;;
10811;SDS011;5458;51.496;7.334;2023-03-01T08:01:53;14.30;;;11.55;;
10811;SDS011;5458;51.496;7.334;2023-03-01T08:04:20;13.85;;;10.88;;
10811;SDS011;5458;51.496;7.334;2023-03-01T08:06:46;12.18;;;10.80;;
10811;SDS011;5458;51.496;7.334;2023-03-01T08:09:12;12.50;;;11.30;;
10811;SDS011;5458;51.496;7.334;2023-03-01T08:11:38;11.75;;;10.55;;
10811;SDS011;5458;51.496;7.334;2023-03-01T08:14:03;14.38;;;11.75;;
10811;SDS011;5458;51.496;7.334;2023-03-01T08:16:30;13.93;;;11.13;;
10811;SDS011;5458;51.496;7.334;2023-03-01T08:18:57;12.05;;;10.80;;
10811;SDS011;5458;51.496;7.334;2023-03-01T08:21:26;12.60;;;11.30;;
10811;SDS011;5458;51.496;7.334;2023-03-01T08:23:51;13.80;;;10.65;;
10811;SDS011;5458;51.496;7.334;2023-03-01T08:26:18;13.30;;;11.60;;
10811;SDS011;5458;51.496;7.334;2023-03-01T08:28:45;12.75;;;9.95;;
10811;SDS011;5458;51.496;7.334;2023-03-01T08:31:19;16.10;;;10.32;;
10811;SDS011;5458;51.496;7.334;2023-03-01T08:33:48;12.73;;;10.30;;
10811;SDS011;5458;51.496;7.334;2023-03-01T08:36:19;13.43;;;10.68;;
10811;SDS011;5458;51.496;7.334;2023-03-01T08:38:49;10.63;;;9.60;;
10811;SDS011;5458;51.496;7.334;2023-03-01T08:41:14;10.90;;;9.77;;
10811;SDS011;5458;51.496;7.334;2023-03-01T08:43:40;10.65;;;9.32;;
10811;SDS011;5458;51.496;7.334;2023-03-01T08:46:06;10.45;;;9.18;;
10811;SDS011;5458;51.496;7.334;2023-03-01T08:48:32;10.75;;;9.27;;
10811;SDS011;5458;51.496;7.334;2023-03-01T08:51:06;10.88;;;9.10;;
10811;SDS011;5458;51.496;7.334;2023-03-01T08:53:32;10.35;;;9.30;;
10811;SDS011;5458;51.496;7.334;2023-03-01T08:55:59;10.80;;;9.32;;
10811;SDS011;5458;51.496;7.334;2023-03-01T08:58:27;9.35;;;8.48;;
10811;SDS011;5458;51.496;7.334;2023-03-01T09:00:53;9.25;;;8.25;;
10811;SDS011;5458;51.496;7.334;2023-03-01T09:03:21;9.73;;;8.43;;
10811;SDS011;5458;51.496;7.334;2023-03-01T09:05:47;9.73;;;8.73;;
10811;SDS011;5458;51.496;7.334;2023-03-01T09:08:14;10.25;;;9.20;;
10811;SDS011;5458;51.496;7.334;2023-03-01T09:10:39;10.27;;;9.07;;
10811;SDS011;5458;51.496;7.334;2023-03-01T09:13:05;10.25;;;8.48;;
10811;SDS011;5458;51.496;7.334;2023-03-01T09:15:31;9.50;;;7.93;;
10811;SDS011;5458;51.496;7.334;2023-03-01T09:17:57;9.25;;;8.05;;
10811;SDS011;5458;51.496;7.334;2023-03-01T09:20:24;8.70;;;7.80;;
10811;SDS011;5458;51.496;7.334;2023-03-01T09:22:49;8.80;;;7.72;;
10811;SDS011;5458;51.496;7.334;2023-03-01T09:25:15;9.98;;;8.38;;
10811;SDS011;5458;51.496;7.334;2023-03-01T09:27:40;8.50;;;7.50;;
10811;SDS011;5458;51.496;7.334;2023-03-01T09:30:07;10.07;;;7.28;;
10811;SDS011;5458;51.496;7.334;2023-03-01T09:32:33;8.48;;;6.93;;
10811;SDS011;5458;51.496;7.334;2023-03-01T09:34:58;10.45;;;7.53;;
10811;SDS011;5458;51.496;7.334;2023-03-01T09:37:29;8.07;;;7.28;;
10811;SDS011;5458;51.496;7.334;2023-03-01T09:39:57;9.93;;;7.13;;
10811;SDS011;5458;51.496;7.334;2023-03-01T09:42:22;8.40;;;6.57;;
10811;SDS011;5458;51.496;7.334;2023-03-01T09:44:56;6.95;;;6.25;;
10811;SDS011;5458;51.496;7.334;2023-03-01T09:47:27;7.25;;;6.60;;
10811;SDS011;5458;51.496;7.334;2023-03-01T09:50:00;7.40;;;6.68;;
10811;SDS011;5458;51.496;7.334;2023-03-01T09:55:31;8.50;;;7.00;;
10811;SDS011;5458;51.496;7.334;2023-03-01T10:00:52;6.90;;;6.20;;
10811;SDS011;5458;51.496;7.334;2023-03-01T10:03:39;7.95;;;6.93;;
10811;SDS011;5458;51.496;7.334;2023-03-01T10:06:15;7.25;;;6.35;;
10811;SDS011;5458;51.496;7.334;2023-03-01T10:09:02;7.60;;;6.28;;
10811;SDS011;5458;51.496;7.334;2023-03-01T10:11:32;6.97;;;6.28;;
10811;SDS011;5458;51.496;7.334;2023-03-01T10:14:05;6.88;;;6.07;;
10811;SDS011;5458;51.496;7.334;2023-03-01T10:16:46;9.32;;;6.63;;
10811;SDS011;5458;51.496;7.334;2023-03-01T10:19:24;7.85;;;6.25;;
10811;SDS011;5458;51.496;7.334;2023-03-01T10:21:57;6.72;;;5.60;;
10811;SDS011;5458;51.496;7.334;2023-03-01T10:24:29;7.70;;;6.60;;
10811;SDS011;5458;51.496;7.334;2023-03-01T10:27:01;7.45;;;6.75;;
10811;SDS011;5458;51.496;7.334;2023-03-01T10:29:43;7.90;;;6.53;;
10811;SDS011;5458;51.496;7.334;2023-03-01T10:32:19;7.30;;;6.28;;
10811;SDS011;5458;51.496;7.334;2023-03-01T10:34:46;7.30;;;6.57;;
10811;SDS011;5458;51.496;7.334;2023-03-01T10:37:16;7.10;;;6.07;;
10811;SDS011;5458;51.496;7.334;2023-03-01T10:42:33;7.05;;;6.22;;
10811;SDS011;5458;51.496;7.334;2023-03-01T10:45:14;6.60;;;6.00;;
10811;SDS011;5458;51.496;7.334;2023-03-01T10:48:11;7.28;;;6.57;;
10811;SDS011;5458;51.496;7.334;2023-03-01T10:50:49;7.15;;;6.45;;
10811;SDS011;5458;51.496;7.334;2023-03-01T10:58:35;7.80;;;6.68;;
10811;SDS011;5458;51.496;7.334;2023-03-01T11:01:06;9.07;;;6.95;;
10811;SDS011;5458;51.496;7.334;2023-03-01T11:04:15;6.88;;;6.18;;
10811;SDS011;5458;51.496;7.334;2023-03-01T11:06:40;8.85;;;7.15;;
10811;SDS011;5458;51.496;7.334;2023-03-01T11:09:22;10.50;;;7.10;;
10811;SDS011;5458;51.496;7.334;2023-03-01T11:11:56;8.88;;;6.82;;
10811;SDS011;5458;51.496;7.334;2023-03-01T11:14:25;8.98;;;7.97;;
10811;SDS011;5458;51.496;7.334;2023-03-01T11:19:28;8.48;;;7.65;;
10811;SDS011;5458;51.496;7.334;2023-03-01T11:27:11;8.15;;;7.43;;
10811;SDS011;5458;51.496;7.334;2023-03-01T11:30:37;8.45;;;7.53;;
10811;SDS011;5458;51.496;7.334;2023-03-01T11:36:30;8.70;;;7.55;;
10811;SDS011;5458;51.496;7.334;2023-03-01T11:39:26;8.48;;;7.68;;
10811;SDS011;5458;51.496;7.334;2023-03-01T11:42:11;11.07;;;7.30;;
10811;SDS011;5458;51.496;7.334;2023-03-01T11:44:43;8.27;;;7.47;;
10811;SDS011;5458;51.496;7.334;2023-03-01T12:06:32;8.68;;;7.78;;
10811;SDS011;5458;51.496;7.334;2023-03-01T12:15:09;9.25;;;7.50;;
10811;SDS011;5458;51.496;7.334;2023-03-01T12:23:04;9.85;;;7.60;;
10811;SDS011;5458;51.496;7.334;2023-03-01T12:25:59;8.63;;;7.55;;
10811;SDS011;5458;51.496;7.334;2023-03-01T12:44:47;10.48;;;7.97;;
10811;SDS011;5458;51.496;7.334;2023-03-01T12:50:25;10.20;;;7.80;;
10811;SDS011;5458;51.496;7.334;2023-03-01T12:52:59;11.13;;;7.85;;
10811;SDS011;5458;51.496;7.334;2023-03-01T12:55:29;8.57;;;7.03;;
10811;SDS011;5458;51.496;7.334;2023-03-01T12:58:04;8.82;;;7.40;;
10811;SDS011;5458;51.496;7.334;2023-03-01T13:11:44;7.63;;;6.93;;
10811;SDS011;5458;51.496;7.334;2023-03-01T13:16:47;9.15;;;8.13;;
10811;SDS011;5458;51.496;7.334;2023-03-01T13:19:15;7.68;;;6.90;;
10811;SDS011;5458;51.496;7.334;2023-03-01T13:21:46;7.38;;;6.65;;
10811;SDS011;5458;51.496;7.334;2023-03-01T13:27:18;8.23;;;7.38;;
10811;SDS011;5458;51.496;7.334;2023-03-01T13:29:56;9.77;;;7.35;;
10811;SDS011;5458;51.496;7.334;2023-03-01T13:32:34;10.75;;;7.38;;
10811;SDS011;5458;51.496;7.334;2023-03-01T13:35:19;9.75;;;7.72;;
10811;SDS011;5458;51.496;7.334;2023-03-01T13:37:51;9.10;;;7.40;;
10811;SDS011;5458;51.496;7.334;2023-03-01T13:42:48;8.55;;;7.38;;
10811;SDS011;5458;51.496;7.334;2023-03-01T13:48:01;9.32;;;7.57;;
10811;SDS011;5458;51.496;7.334;2023-03-01T13:50:32;8.05;;;7.22;;
10811;SDS011;5458;51.496;7.334;2023-03-01T13:53:04;8.30;;;7.03;;
10811;SDS011;5458;51.496;7.334;2023-03-01T14:01:28;9.25;;;7.53;;
10811;SDS011;5458;51.496;7.334;2023-03-01T14:03:55;8.95;;;8.07;;
10811;SDS011;5458;51.496;7.334;2023-03-01T14:06:25;8.55;;;7.60;;
10811;SDS011;5458;51.496;7.334;2023-03-01T14:14:40;7.78;;;6.97;;
10811;SDS011;5458;51.496;7.334;2023-03-01T14:19:58;10.43;;;6.85;;
10811;SDS011;5458;51.496;7.334;2023-03-01T14:22:27;10.45;;;6.72;;
10811;SDS011;5458;51.496;7.334;2023-03-01T14:25:06;9.50;;;6.90;;
10811;SDS011;5458;51.496;7.334;2023-03-01T14:28:00;9.40;;;6.78;;
10811;SDS011;5458;51.496;7.334;2023-03-01T14:30:48;7.13;;;6.43;;
10811;SDS011;5458;51.496;7.334;2023-03-01T14:33:36;8.05;;;6.13;;
10811;SDS011;5458;51.496;7.334;2023-03-01T14:36:06;8.85;;;6.32;;
10811;SDS011;5458;51.496;7.334;2023-03-01T14:38:37;8.60;;;6.80;;
10811;SDS011;5458;51.496;7.334;2023-03-01T14:43:43;8.63;;;6.35;;
10811;SDS011;5458;51.496;7.334;2023-03-01T14:46:24;7.32;;;6.07;;
10811;SDS011;5458;51.496;7.334;2023-03-01T14:49:10;7.75;;;6.43;;
10811;SDS011;5458;51.496;7.334;2023-03-01T14:51:43;8.63;;;6.97;;
10811;SDS011;5458;51.496;7.334;2023-03-01T14:55:03;8.93;;;6.90;;
10811;SDS011;5458;51.496;7.334;2023-03-01T14:57:14;7.28;;;6.15;;
10811;SDS011;5458;51.496;7.334;2023-03-01T14:59:51;7.72;;;6.85;;
10811;SDS011;5458;51.496;7.334;2023-03-01T15:02:20;11.18;;;7.22;;
10811;SDS011;5458;51.496;7.334;2023-03-01T15:04:52;7.25;;;6.57;;
10811;SDS011;5458;51.496;7.334;2023-03-01T15:07:26;6.93;;;6.22;;
10811;SDS011;5458;51.496;7.334;2023-03-01T15:10:27;9.15;;;6.50;;
10811;SDS011;5458;51.496;7.334;2023-03-01T15:12:54;8.65;;;6.18;;
10811;SDS011;5458;51.496;7.334;2023-03-01T15:18:01;12.55;;;6.85;;
10811;SDS011;5458;51.496;7.334;2023-03-01T15:20:47;9.18;;;6.60;;
10811;SDS011;5458;51.496;7.334;2023-03-01T15:25:46;7.47;;;6.22;;
10811;SDS011;5458;51.496;7.334;2023-03-01T15:28:19;8.27;;;6.85;;
10811;SDS011;5458;51.496;7.334;2023-03-01T15:30:45;7.95;;;6.32;;
10811;SDS011;5458;51.496;7.334;2023-03-01T15:33:46;8.45;;;6.50;;
10811;SDS011;5458;51.496;7.334;2023-03-01T15:38:57;7.47;;;6.35;;
10811;SDS011;5458;51.496;7.334;2023-03-01T15:41:25;6.63;;;6.03;;
10811;SDS011;5458;51.496;7.334;2023-03-01T15:43:51;6.70;;;5.80;;
10811;SDS011;5458;51.496;7.334;2023-03-01T15:46:25;7.45;;;6.15;;
10811;SDS011;5458;51.496;7.334;2023-03-01T15:48:57;7.18;;;5.53;;
10811;SDS011;5458;51.496;7.334;2023-03-01T15:51:36;7.32;;;5.60;;
10811;SDS011;5458;51.496;7.334;2023-03-01T15:54:04;7.10;;;5.55;;
10811;SDS011;5458;51.496;7.334;2023-03-01T15:56:32;6.28;;;5.68;;
10811;SDS011;5458;51.496;7.334;2023-03-01T15:58:58;6.78;;;5.40;;
10811;SDS011;5458;51.496;7.334;2023-03-01T16:01:26;7.10;;;5.95;;
10811;SDS011;5458;51.496;7.334;2023-03-01T16:03:52;6.03;;;5.43;;
10811;SDS011;5458;51.496;7.334;2023-03-01T16:06:18;7.18;;;5.88;;
10811;SDS011;5458;51.496;7.334;2023-03-01T16:08:44;7.55;;;6.28;;
10811;SDS011;5458;51.496;7.334;2023-03-01T16:11:14;7.28;;;5.72;;
10811;SDS011;5458;51.496;7.334;2023-03-01T16:13:44;7.32;;;5.82;;
10811;SDS011;5458;51.496;7.334;2023-03-01T16:16:10;7.95;;;5.85;;
10811;SDS011;5458;51.496;7.334;2023-03-01T16:18:39;7.30;;;5.55;;
10811;SDS011;5458;51.496;7.334;2023-03-01T16:21:06;6.35;;;5.20;;
10811;SDS011;5458;51.496;7.334;2023-03-01T16:23:35;6.05;;;5.53;;
10811;SDS011;5458;51.496;7.334;2023-03-01T16:26:01;8.13;;;6.00;;
10811;SDS011;5458;51.496;7.334;2023-03-01T16:28:27;7.07;;;5.80;;
10811;SDS011;5458;51.496;7.334;2023-03-01T16:30:52;6.10;;;5.43;;
10811;SDS011;5458;51.496;7.334;2023-03-01T16:33:18;8.02;;;6.32;;
10811;SDS011;5458;51.496;7.334;2023-03-01T16:35:43;5.97;;;5.40;;
10811;SDS011;5458;51.496;7.334;2023-03-01T16:38:10;5.88;;;5.28;;
10811;SDS011;5458;51.496;7.334;2023-03-01T16:40:35;6.40;;;5.80;;
10811;SDS011;5458;51.496;7.334;2023-03-01T16:43:01;6.47;;;5.22;;
10811;SDS011;5458;51.496;7.334;2023-03-01T16:45:28;7.80;;;5.90;;
10811;SDS011;5458;51.496;7.334;2023-03-01T16:48:00;6.63;;;5.40;;
10811;SDS011;5458;51.496;7.334;2023-03-01T16:50:25;6.22;;;5.50;;
10811;SDS011;5458;51.496;7.334;2023-03-01T16:52:51;8.80;;;5.78;;
10811;SDS011;5458;51.496;7.334;2023-03-01T16:55:16;6.60;;;5.95;;
10811;SDS011;5458;51.496;7.334;2023-03-01T16:57:42;8.07;;;6.00;;
10811;SDS011;5458;51.496;7.334;2023-03-01T17:00:09;7.80;;;5.53;;
10811;SDS011;5458;51.496;7.334;2023-03-01T17:02:36;8.13;;;6.40;;
10811;SDS011;5458;51.496;7.334;2023-03-01T17:05:02;8.40;;;5.82;;
10811;SDS011;5458;51.496;7.334;2023-03-01T17:07:29;8.55;;;5.25;;
10811;SDS011;5458;51.496;7.334;2023-03-01T17:09:58;7.32;;;5.65;;